Time;durP1;ratioP1;P1;durP2;ratioP2;P2;SDS_P1;SDS_P2;PMS_P1;PMS_P2;Temp;Humidity;BMP_temperature;BMP_pressure;BME280_temperature;BME280_humidity;BME280_pressure;Samples;Min_cycle;Max_cycle;Signal;HPM_P1;HPM_P2
2022/06/11 00:00:43;;;;;;;9.07;7.47;;;;;;;;;;4973225;28;20034;-74
2022/06/11 00:03:08;;;;;;;8.60;7.80;;;;;;;;;;4971394;28;20023;-75
2022/06/11 00:05:34;;;;;;;8.10;6.97;;;;;;;;;;4972746;28;20467;-75
2022/06/11 00:07:59;;;;;;;7.80;7.00;;;;;;;;;;4971418;28;20027;-75
2022/06/11 00:10:26;;;;;;;12.40;7.50;;;;;;;;;;4971673;28;20521;-75
2022/06/11 00:12:51;;;;;;;7.45;6.85;;;;;;;;;;4971470;28;20379;-75
2022/06/11 00:15:18;;;;;;;9.48;7.75;;;;;;;;;;4972735;28;20042;-75
2022/06/11 00:17:45;;;;;;;8.27;7.22;;;;;;;;;;4972819;28;20027;-75
2022/06/11 00:20:11;;;;;;;11.20;7.80;;;;;;;;;;4972981;28;20081;-75
2022/06/11 00:22:37;;;;;;;12.50;7.68;;;;;;;;;;4984338;28;20042;-76
2022/06/11 00:25:03;;;;;;;10.60;7.65;;;;;;;;;;4992016;28;20050;-75
2022/06/11 00:27:29;;;;;;;9.10;7.63;;;;;;;;;;4990721;28;20066;-75
2022/06/11 00:29:54;;;;;;;10.68;7.60;;;;;;;;;;4990481;28;20108;-75
2022/06/11 00:32:20;;;;;;;12.98;7.90;;;;;;;;;;4991851;28;20053;-75
2022/06/11 00:34:46;;;;;;;9.18;7.90;;;;;;;;;;4991688;28;20031;-75
2022/06/11 00:37:13;;;;;;;10.38;8.10;;;;;;;;;;5006598;28;20033;-75
2022/06/11 00:39:40;;;;;;;8.77;7.72;;;;;;;;;;4990214;28;20069;-75
2022/06/11 00:42:24;;;;;;;12.60;8.65;;;;;;;;;;4990141;28;20089;-76
2022/06/11 00:45:15;;;;;;;21.40;8.45;;;;;;;;;;4990065;28;20062;-76
2022/06/11 00:47:43;;;;;;;11.73;8.85;;;;;;;;;;4990522;28;20037;-75
2022/06/11 00:50:20;;;;;;;9.95;8.23;;;;;;;;;;4990052;28;20026;-75
2022/06/11 00:52:47;;;;;;;11.45;8.80;;;;;;;;;;4990213;28;20072;-75
2022/06/11 00:55:23;;;;;;;8.60;7.80;;;;;;;;;;4990060;28;20034;-75
2022/06/11 00:58:12;;;;;;;12.10;9.02;;;;;;;;;;4990416;28;20030;-75
2022/06/11 01:00:42;;;;;;;10.18;8.60;;;;;;;;;;4991949;28;20036;-75
2022/06/11 01:03:15;;;;;;;9.73;8.82;;;;;;;;;;4991677;28;20026;-75
2022/06/11 01:05:45;;;;;;;15.20;8.98;;;;;;;;;;4990371;28;20045;-74
2022/06/11 01:08:20;;;;;;;11.48;8.40;;;;;;;;;;4990126;28;20062;-74
2022/06/11 01:11:13;;;;;;;11.63;8.77;;;;;;;;;;4990106;28;20026;-75
2022/06/11 01:14:09;;;;;;;8.98;8.05;;;;;;;;;;4991376;28;20049;-75
2022/06/11 01:16:56;;;;;;;9.32;8.45;;;;;;;;;;4991423;28;20052;-74
2022/06/11 01:19:50;;;;;;;9.80;7.88;;;;;;;;;;4990034;28;20027;-74
2022/06/11 01:22:57;;;;;;;9.50;7.95;;;;;;;;;;4980554;28;20029;-75
2022/06/11 01:25:34;;;;;;;11.10;7.90;;;;;;;;;;4969894;28;20407;-74
2022/06/11 01:28:28;;;;;;;10.68;8.23;;;;;;;;;;4970371;28;20038;-74
2022/06/11 01:31:07;;;;;;;10.13;8.30;;;;;;;;;;4971762;28;20106;-74
2022/06/11 01:33:51;;;;;;;9.27;8.38;;;;;;;;;;4970307;28;20159;-74
2022/06/11 01:36:34;;;;;;;8.65;7.78;;;;;;;;;;4970286;28;20121;-74
2022/06/11 01:39:06;;;;;;;9.73;8.32;;;;;;;;;;4970821;28;20030;-74
2022/06/11 01:41:48;;;;;;;13.13;8.63;;;;;;;;;;4975118;28;20023;-74
2022/06/11 01:44:21;;;;;;;9.05;8.05;;;;;;;;;;4990181;28;20030;-73
2022/06/11 01:46:52;;;;;;;12.02;9.05;;;;;;;;;;4988295;28;20034;-74
2022/06/11 01:49:23;;;;;;;14.57;8.93;;;;;;;;;;4985550;28;20030;-75
2022/06/11 01:52:19;;;;;;;12.85;8.70;;;;;;;;;;4974189;28;20030;-74
2022/06/11 01:55:09;;;;;;;9.73;8.82;;;;;;;;;;4970671;28;20066;-75
2022/06/11 01:57:54;;;;;;;9.40;8.50;;;;;;;;;;4969612;28;20092;-75
2022/06/11 02:00:41;;;;;;;12.45;8.45;;;;;;;;;;4971372;28;20027;-74
2022/06/11 02:03:10;;;;;;;10.63;8.73;;;;;;;;;;4969912;28;20122;-75
2022/06/11 02:05:56;;;;;;;14.40;8.77;;;;;;;;;;4971672;28;20035;-74
2022/06/11 02:08:35;;;;;;;9.13;8.23;;;;;;;;;;4971138;28;20030;-75
2022/06/11 02:11:23;;;;;;;10.48;9.38;;;;;;;;;;4970700;28;20023;-73
2022/06/11 02:14:06;;;;;;;13.18;9.50;;;;;;;;;;4969488;28;20027;-75
2022/06/11 02:16:41;;;;;;;14.57;9.07;;;;;;;;;;4971386;28;20110;-74
2022/06/11 02:19:13;;;;;;;12.63;8.73;;;;;;;;;;4970880;28;20022;-75
2022/06/11 02:21:47;;;;;;;11.75;8.57;;;;;;;;;;4974571;28;20113;-75
2022/06/11 02:24:28;;;;;;;9.95;8.90;;;;;;;;;;4988645;28;20035;-75
2022/06/11 02:27:00;;;;;;;11.57;9.65;;;;;;;;;;4990848;28;20058;-75
2022/06/11 02:29:26;;;;;;;12.85;9.30;;;;;;;;;;4989973;28;20036;-74
2022/06/11 02:32:13;;;;;;;10.35;9.32;;;;;;;;;;4988727;28;20030;-74
2022/06/11 02:34:44;;;;;;;11.63;9.77;;;;;;;;;;4989838;28;20120;-76
2022/06/11 02:37:20;;;;;;;10.77;9.40;;;;;;;;;;4988384;28;20146;-75
2022/06/11 02:39:46;;;;;;;14.85;9.82;;;;;;;;;;4988764;28;20034;-74
2022/06/11 02:42:15;;;;;;;12.25;9.95;;;;;;;;;;4988221;28;20022;-74
2022/06/11 02:44:41;;;;;;;13.32;9.45;;;;;;;;;;4988550;28;20031;-74
2022/06/11 02:47:07;;;;;;;11.68;9.43;;;;;;;;;;4988382;28;20041;-74
2022/06/11 02:49:35;;;;;;;16.45;10.48;;;;;;;;;;5005059;28;20037;-74
2022/06/11 02:52:08;;;;;;;13.23;8.65;;;;;;;;;;4990032;28;20088;-75
2022/06/11 02:54:34;;;;;;;10.77;9.68;;;;;;;;;;4988809;28;20026;-75
2022/06/11 02:57:01;;;;;;;12.57;9.38;;;;;;;;;;5006730;28;20050;-76
2022/06/11 02:59:28;;;;;;;12.40;9.80;;;;;;;;;;4991427;28;20037;-74
2022/06/11 03:01:54;;;;;;;11.77;9.93;;;;;;;;;;4989615;28;20116;-75
2022/06/11 03:04:25;;;;;;;11.82;9.70;;;;;;;;;;4989449;28;20101;-74
2022/06/11 03:06:51;;;;;;;10.63;9.63;;;;;;;;;;4989551;28;20033;-75
2022/06/11 03:09:30;;;;;;;11.95;9.57;;;;;;;;;;4990699;28;20346;-75
2022/06/11 03:11:57;;;;;;;10.32;9.32;;;;;;;;;;4993505;28;20033;-75
2022/06/11 03:14:23;;;;;;;12.52;10.45;;;;;;;;;;4993362;28;20121;-75
2022/06/11 03:16:51;;;;;;;14.55;10.70;;;;;;;;;;4992400;28;20133;-76
2022/06/11 03:19:20;;;;;;;13.75;10.10;;;;;;;;;;4993297;28;20494;-74
2022/06/11 03:21:50;;;;;;;11.43;10.18;;;;;;;;;;4987333;28;20114;-74
2022/06/11 03:24:16;;;;;;;15.25;12.63;;;;;;;;;;4972366;28;20126;-74
2022/06/11 03:26:43;;;;;;;13.82;11.27;;;;;;;;;;4972445;28;20113;-74
2022/06/11 03:29:10;;;;;;;14.68;10.77;;;;;;;;;;4973553;28;20030;-76
2022/06/11 03:31:37;;;;;;;18.38;11.82;;;;;;;;;;4972300;28;20034;-74
2022/06/11 03:34:03;;;;;;;13.60;12.13;;;;;;;;;;4974309;28;20042;-75
2022/06/11 03:36:30;;;;;;;16.38;12.52;;;;;;;;;;4973173;28;20427;-74
2022/06/11 03:38:55;;;;;;;16.08;13.05;;;;;;;;;;4972204;28;20035;-74
2022/06/11 03:41:23;;;;;;;16.25;14.15;;;;;;;;;;4973245;28;20034;-74
2022/06/11 03:43:50;;;;;;;17.70;12.52;;;;;;;;;;4973567;28;20042;-73
2022/06/11 03:46:16;;;;;;;14.38;11.93;;;;;;;;;;4972098;28;20467;-75
2022/06/11 03:48:42;;;;;;;13.25;11.85;;;;;;;;;;4972206;28;20092;-75
2022/06/11 03:51:09;;;;;;;13.20;11.80;;;;;;;;;;4971954;28;20030;-75
2022/06/11 03:53:37;;;;;;;12.38;11.02;;;;;;;;;;4955857;28;20030;-74
2022/06/11 03:56:05;;;;;;;13.70;11.20;;;;;;;;;;4973257;28;20057;-75
2022/06/11 03:58:32;;;;;;;12.40;10.25;;;;;;;;;;4971710;28;20026;-75
2022/06/11 04:01:16;;;;;;;13.38;9.77;;;;;;;;;;4972005;28;20089;-75
2022/06/11 04:04:02;;;;;;;12.35;11.13;;;;;;;;;;4973226;28;20054;-76
2022/06/11 04:06:52;;;;;;;12.80;10.90;;;;;;;;;;4971714;28;20035;-75
2022/06/11 04:09:29;;;;;;;12.35;9.40;;;;;;;;;;4972961;28;20093;-75
2022/06/11 04:11:54;;;;;;;9.60;8.60;;;;;;;;;;4973075;28;20114;-75
2022/06/11 04:14:20;;;;;;;9.55;8.65;;;;;;;;;;4972817;28;20109;-75
2022/06/11 04:16:50;;;;;;;14.05;10.20;;;;;;;;;;4973193;28;20283;-75
2022/06/11 04:19:20;;;;;;;14.90;10.80;;;;;;;;;;4971608;28;20026;-76
2022/06/11 04:21:46;;;;;;;10.35;9.32;;;;;;;;;;4976871;28;20026;-77
2022/06/11 04:24:13;;;;;;;14.25;9.27;;;;;;;;;;4992030;28;20046;-76
2022/06/11 04:26:42;;;;;;;12.80;9.23;;;;;;;;;;4992428;28;20038;-76
2022/06/11 04:29:11;;;;;;;11.82;9.75;;;;;;;;;;4990816;28;20327;-76
2022/06/11 04:31:37;;;;;;;13.25;9.75;;;;;;;;;;5006969;28;20038;-74
2022/06/11 04:34:04;;;;;;;14.90;9.32;;;;;;;;;;4990495;28;20023;-73
2022/06/11 04:36:34;;;;;;;12.18;9.57;;;;;;;;;;5023022;28;20045;-73
2022/06/11 04:39:00;;;;;;;14.45;10.63;;;;;;;;;;4990341;28;20045;-73
2022/06/11 04:41:27;;;;;;;14.25;9.15;;;;;;;;;;4991795;28;20042;-73
2022/06/11 04:43:53;;;;;;;12.15;9.80;;;;;;;;;;4990132;28;20061;-73
2022/06/11 04:46:19;;;;;;;10.18;9.15;;;;;;;;;;4991303;28;20073;-73
2022/06/11 04:48:45;;;;;;;10.88;9.80;;;;;;;;;;4973772;28;20038;-73
2022/06/11 04:51:13;;;;;;;11.48;9.57;;;;;;;;;;4989843;28;20471;-71
2022/06/11 04:53:39;;;;;;;10.65;9.02;;;;;;;;;;4990002;28;20030;-73
2022/06/11 04:56:06;;;;;;;13.00;9.50;;;;;;;;;;4991374;28;20565;-73
2022/06/11 04:58:31;;;;;;;11.88;9.68;;;;;;;;;;4989831;28;20062;-73
2022/06/11 05:00:57;;;;;;;16.77;9.82;;;;;;;;;;4990264;28;20034;-73
2022/06/11 05:03:22;;;;;;;12.43;9.55;;;;;;;;;;4989929;28;20030;-73
2022/06/11 05:05:49;;;;;;;11.10;9.75;;;;;;;;;;4990253;28;20030;-73
2022/06/11 05:08:15;;;;;;;13.25;9.43;;;;;;;;;;5006088;28;20046;-73
2022/06/11 05:10:42;;;;;;;13.55;10.57;;;;;;;;;;4989779;28;20030;-73
2022/06/11 05:13:09;;;;;;;11.50;9.65;;;;;;;;;;4989864;28;20060;-73
2022/06/11 05:15:38;;;;;;;9.90;8.90;;;;;;;;;;4989522;28;20034;-73
2022/06/11 05:18:04;;;;;;;18.08;10.10;;;;;;;;;;4990926;28;20045;-72
2022/06/11 05:20:29;;;;;;;11.45;9.75;;;;;;;;;;4990814;28;20030;-72
2022/06/11 05:22:55;;;;;;;9.25;8.35;;;;;;;;;;4977310;28;20033;-72
2022/06/11 05:25:20;;;;;;;12.25;9.15;;;;;;;;;;4969781;28;20527;-73
2022/06/11 05:27:47;;;;;;;10.10;8.70;;;;;;;;;;4971358;28;20061;-73
2022/06/11 05:30:21;;;;;;;11.50;10.38;;;;;;;;;;4969695;28;20507;-73
2022/06/11 05:32:46;;;;;;;10.25;9.25;;;;;;;;;;4968800;28;20034;-73
2022/06/11 05:35:25;;;;;;;13.13;9.77;;;;;;;;;;4971783;28;20343;-73
2022/06/11 05:37:54;;;;;;;19.13;9.80;;;;;;;;;;4969669;28;20503;-74
2022/06/11 05:40:23;;;;;;;15.38;9.02;;;;;;;;;;4971129;28;20042;-73
2022/06/11 05:42:49;;;;;;;11.07;9.60;;;;;;;;;;4954062;28;20086;-73
2022/06/11 05:45:30;;;;;;;12.80;9.45;;;;;;;;;;4971097;28;20506;-73
2022/06/11 05:47:56;;;;;;;;;;;;;;;;;;4971685;28;20483;-73
2022/06/11 05:50:28;;;;;;;11.73;9.27;;;;;;;;;;4969648;28;19956;-73
2022/06/11 05:52:56;;;;;;;10.63;9.23;;;;;;;;;;4969691;28;20491;-73
2022/06/11 05:55:26;;;;;;;10.18;9.18;;;;;;;;;;4969260;28;20034;-74
2022/06/11 05:57:54;;;;;;;14.02;9.02;;;;;;;;;;4937498;28;20031;-73
2022/06/11 06:00:24;;;;;;;9.48;8.55;;;;;;;;;;4969507;28;20117;-73
2022/06/11 06:02:49;;;;;;;10.77;8.77;;;;;;;;;;4970870;28;20050;-73
2022/06/11 06:05:21;;;;;;;13.32;8.98;;;;;;;;;;4969552;28;20072;-73
2022/06/11 06:07:47;;;;;;;10.65;8.57;;;;;;;;;;4970878;28;20531;-73
2022/06/11 06:10:13;;;;;;;12.43;8.60;;;;;;;;;;4969918;28;20125;-73
2022/06/11 06:12:40;;;;;;;9.05;8.15;;;;;;;;;;4971389;28;20109;-73
2022/06/11 06:15:13;;;;;;;12.68;9.40;;;;;;;;;;4969567;28;20046;-73
2022/06/11 06:17:39;;;;;;;10.10;8.52;;;;;;;;;;4969637;28;20421;-73
2022/06/11 06:20:08;;;;;;;12.20;8.25;;;;;;;;;;4969466;28;20566;-74
2022/06/11 06:22:33;;;;;;;11.63;8.85;;;;;;;;;;4981338;28;20054;-74
2022/06/11 06:24:59;;;;;;;12.23;8.35;;;;;;;;;;4990069;28;20054;-72
2022/06/11 06:27:24;;;;;;;14.95;9.25;;;;;;;;;;4989843;28;20023;-72
2022/06/11 06:29:51;;;;;;;10.55;7.28;;;;;;;;;;4988416;28;20383;-73
2022/06/11 06:32:17;;;;;;;9.57;8.43;;;;;;;;;;4989792;28;20105;-74
2022/06/11 06:34:43;;;;;;;11.85;7.57;;;;;;;;;;4989707;28;20456;-74
2022/06/11 06:37:09;;;;;;;9.55;7.45;;;;;;;;;;4988387;28;20053;-73
2022/06/11 06:39:35;;;;;;;13.35;8.15;;;;;;;;;;4989644;28;20023;-73
2022/06/11 06:42:00;;;;;;;12.43;7.25;;;;;;;;;;4988841;28;20023;-73
2022/06/11 06:44:26;;;;;;;12.90;7.40;;;;;;;;;;4991562;28;20109;-73
2022/06/11 06:46:51;;;;;;;9.52;6.88;;;;;;;;;;4994130;28;20496;-73
2022/06/11 06:49:18;;;;;;;11.07;7.47;;;;;;;;;;4993708;28;20030;-75
2022/06/11 06:51:44;;;;;;;8.90;6.82;;;;;;;;;;4993422;28;20065;-75
2022/06/11 06:54:11;;;;;;;9.38;7.38;;;;;;;;;;4993662;28;20042;-73
2022/06/11 06:56:38;;;;;;;10.57;7.25;;;;;;;;;;4993830;28;20085;-73
2022/06/11 06:59:04;;;;;;;16.00;7.55;;;;;;;;;;4994520;28;20076;-74
2022/06/11 07:01:31;;;;;;;10.70;7.57;;;;;;;;;;4993858;28;20033;-73
2022/06/11 07:03:57;;;;;;;12.57;7.03;;;;;;;;;;4993640;28;20499;-74
2022/06/11 07:06:24;;;;;;;7.82;6.85;;;;;;;;;;4992015;28;20058;-75
2022/06/11 07:08:51;;;;;;;12.27;7.00;;;;;;;;;;4993336;28;20041;-76
2022/06/11 07:11:18;;;;;;;9.43;6.32;;;;;;;;;;4992302;28;20038;-74
2022/06/11 07:13:43;;;;;;;9.77;6.43;;;;;;;;;;4993169;28;20491;-73
2022/06/11 07:16:09;;;;;;;8.10;5.70;;;;;;;;;;4991983;28;20040;-73
2022/06/11 07:19:03;;;;;;;9.55;5.68;;;;;;;;;;5007924;28;20034;-73
2022/06/11 07:21:35;;;;;;;6.40;5.80;;;;;;;;;;4988776;28;20081;-74
2022/06/11 07:24:05;;;;;;;;;;;;;;;;;;4972574;28;20122;-72
2022/06/11 07:26:38;;;;;;;14.75;5.65;;;;;;;;;;4973565;28;19910;-74
2022/06/11 07:29:06;;;;;;;6.65;5.15;;;;;;;;;;4972330;28;20030;-73
2022/06/11 07:31:32;;;;;;;7.10;4.70;;;;;;;;;;4972010;28;20062;-73
2022/06/11 07:33:59;;;;;;;5.82;4.47;;;;;;;;;;4972263;28;20641;-73
2022/06/11 07:36:25;;;;;;;9.02;4.32;;;;;;;;;;4971995;28;20027;-73
2022/06/11 07:38:51;;;;;;;3.45;3.13;;;;;;;;;;4973503;28;20034;-73
2022/06/11 07:41:17;;;;;;;4.82;3.42;;;;;;;;;;4973453;28;20361;-74
2022/06/11 07:43:42;;;;;;;5.32;3.17;;;;;;;;;;4973624;28;20019;-74
2022/06/11 07:46:08;;;;;;;7.10;3.47;;;;;;;;;;4973175;28;20545;-73
2022/06/11 07:48:34;;;;;;;4.25;3.53;;;;;;;;;;4971423;28;20041;-74
2022/06/11 07:50:59;;;;;;;10.75;4.43;;;;;;;;;;4971550;28;20042;-74
2022/06/11 07:53:25;;;;;;;7.13;3.85;;;;;;;;;;4972698;28;20019;-72
2022/06/11 07:55:53;;;;;;;5.68;3.17;;;;;;;;;;4954496;28;20034;-74
2022/06/11 07:58:21;;;;;;;4.80;2.60;;;;;;;;;;4971821;28;20031;-72
2022/06/11 08:00:50;;;;;;;6.68;2.50;;;;;;;;;;4973016;28;20022;-74
2022/06/11 08:03:16;;;;;;;4.45;2.35;;;;;;;;;;4955904;28;20138;-73
2022/06/11 08:05:43;;;;;;;4.72;2.33;;;;;;;;;;4971123;28;20033;-73
2022/06/11 08:08:09;;;;;;;14.73;3.58;;;;;;;;;;4971831;28;20082;-74
2022/06/11 08:10:37;;;;;;;9.18;3.75;;;;;;;;;;4972633;28;20026;-73
2022/06/11 08:13:05;;;;;;;3.35;2.17;;;;;;;;;;4972812;28;20490;-72
2022/06/11 08:15:30;;;;;;;6.05;2.38;;;;;;;;;;4972801;28;20542;-74
2022/06/11 08:17:56;;;;;;;5.63;2.25;;;;;;;;;;4973317;28;20177;-74
2022/06/11 08:20:25;;;;;;;5.43;2.40;;;;;;;;;;4973058;28;20049;-75
2022/06/11 08:22:52;;;;;;;3.65;1.88;;;;;;;;;;4986073;28;20463;-73
2022/06/11 08:25:19;;;;;;;3.05;2.10;;;;;;;;;;4992014;28;20071;-73
2022/06/11 08:27:48;;;;;;;8.10;2.08;;;;;;;;;;4992031;28;20543;-72
2022/06/11 08:30:15;;;;;;;5.05;2.58;;;;;;;;;;4990678;28;20034;-74
2022/06/11 08:32:41;;;;;;;6.50;2.13;;;;;;;;;;4990366;28;20030;-75
2022/06/11 08:35:08;;;;;;;3.33;2.00;;;;;;;;;;5006876;28;20043;-74
2022/06/11 08:37:33;;;;;;;5.07;2.05;;;;;;;;;;4991927;28;20026;-73
2022/06/11 08:39:59;;;;;;;3.55;2.10;;;;;;;;;;4990484;28;20026;-74
2022/06/11 08:42:30;;;;;;;3.95;2.10;;;;;;;;;;4990339;28;20085;-73
2022/06/11 08:44:57;;;;;;;5.18;1.80;;;;;;;;;;4990467;28;20035;-73
2022/06/11 08:47:31;;;;;;;2.65;1.70;;;;;;;;;;4991889;28;20088;-74
2022/06/11 08:50:00;;;;;;;1.88;1.70;;;;;;;;;;4991815;28;20037;-73
2022/06/11 08:52:28;;;;;;;3.88;1.73;;;;;;;;;;4989844;28;20053;-73
2022/06/11 08:54:54;;;;;;;5.80;1.75;;;;;;;;;;4991653;28;20018;-75
2022/06/11 08:57:51;;;;;;;2.67;1.88;;;;;;;;;;4989796;28;20078;-73
2022/06/11 09:00:29;;;;;;;3.83;1.65;;;;;;;;;;4989942;28;20022;-75
2022/06/11 09:02:58;;;;;;;6.47;1.75;;;;;;;;;;4990298;28;20057;-73
2022/06/11 09:05:42;;;;;;;2.85;1.48;;;;;;;;;;4990187;28;20030;-75
2022/06/11 09:08:24;;;;;;;7.72;2.13;;;;;;;;;;4990287;28;20022;-73
2022/06/11 09:11:12;;;;;;;5.57;2.00;;;;;;;;;;4989712;28;20475;-73
2022/06/11 09:14:02;;;;;;;3.35;2.08;;;;;;;;;;4991137;28;20035;-73
2022/06/11 09:16:33;;;;;;;2.28;1.90;;;;;;;;;;4991044;28;20030;-73
2022/06/11 09:19:04;;;;;;;3.83;2.28;;;;;;;;;;4989793;28;20433;-73
2022/06/11 09:21:53;;;;;;;2.28;1.63;;;;;;;;;;4986885;28;20030;-74
2022/06/11 09:24:41;;;;;;;2.97;2.03;;;;;;;;;;4970072;28;20053;-73
2022/06/11 09:27:38;;;;;;;3.88;2.05;;;;;;;;;;4972148;28;20054;-73
2022/06/11 09:30:29;;;;;;;2.45;2.13;;;;;;;;;;4971063;28;20023;-73
2022/06/11 09:33:08;;;;;;;3.13;2.20;;;;;;;;;;4971651;28;20031;-74
2022/06/11 09:35:58;;;;;;;4.30;2.22;;;;;;;;;;4970008;28;20035;-74
2022/06/11 09:39:08;;;;;;;4.78;2.17;;;;;;;;;;4970236;28;20027;-73
2022/06/11 09:41:50;;;;;;;3.97;2.37;;;;;;;;;;4970867;28;20093;-73
2022/06/11 09:44:43;;;;;;;7.80;2.63;;;;;;;;;;4971826;28;20085;-73
2022/06/11 09:47:33;;;;;;;5.32;2.72;;;;;;;;;;4971352;28;20102;-75
2022/06/11 09:50:25;;;;;;;3.92;2.05;;;;;;;;;;4970866;28;20041;-74
2022/06/11 09:53:09;;;;;;;3.38;2.20;;;;;;;;;;4970758;28;20034;-73
2022/06/11 09:55:50;;;;;;;4.50;2.63;;;;;;;;;;4969495;28;20476;-73
2022/06/11 09:58:42;;;;;;;5.18;2.33;;;;;;;;;;4971134;28;20033;-73
2022/06/11 10:01:16;;;;;;;7.25;1.98;;;;;;;;;;4971035;28;20034;-74
2022/06/11 10:03:55;;;;;;;3.28;2.00;;;;;;;;;;4969374;28;20534;-72
2022/06/11 10:06:35;;;;;;;2.28;1.88;;;;;;;;;;4969591;28;20121;-72
2022/06/11 10:09:10;;;;;;;5.63;2.13;;;;;;;;;;4970501;28;20029;-72
2022/06/11 10:11:44;;;;;;;5.30;2.50;;;;;;;;;;4970561;28;20085;-73
2022/06/11 10:14:40;;;;;;;5.68;2.15;;;;;;;;;;4970455;28;20522;-73
2022/06/11 10:17:42;;;;;;;4.68;2.47;;;;;;;;;;4970703;28;20034;-75
2022/06/11 10:20:37;;;;;;;5.07;2.47;;;;;;;;;;4966098;28;20047;-73
2022/06/11 10:23:37;;;;;;;4.47;2.10;;;;;;;;;;4984371;28;20030;-73
2022/06/11 10:26:10;;;;;;;6.93;2.10;;;;;;;;;;4988832;28;20042;-72
2022/06/11 10:28:47;;;;;;;3.78;1.95;;;;;;;;;;4989895;28;20026;-74
2022/06/11 10:31:36;;;;;;;3.50;2.38;;;;;;;;;;4988704;28;20030;-73
2022/06/11 10:34:13;;;;;;;4.93;2.35;;;;;;;;;;4989904;28;20026;-74
2022/06/11 10:36:55;;;;;;;2.38;1.98;;;;;;;;;;4988367;28;20042;-73
2022/06/11 10:39:39;;;;;;;4.95;2.08;;;;;;;;;;4989903;28;20097;-72
2022/06/11 10:42:11;;;;;;;3.70;2.10;;;;;;;;;;4988533;28;20026;-72
2022/06/11 10:44:50;;;;;;;4.75;2.42;;;;;;;;;;4988521;28;20021;-74
2022/06/11 10:47:18;;;;;;;4.38;2.92;;;;;;;;;;4988692;28;20030;-73
2022/06/11 10:49:46;;;;;;;7.28;2.45;;;;;;;;;;4989827;28;20487;-73
2022/06/11 10:52:35;;;;;;;3.40;2.00;;;;;;;;;;4989973;28;20037;-73
2022/06/11 10:55:02;;;;;;;2.60;2.28;;;;;;;;;;4988930;28;20018;-74
2022/06/11 10:57:29;;;;;;;3.28;2.20;;;;;;;;;;4988339;28;20034;-73
2022/06/11 11:00:10;;;;;;;5.38;2.50;;;;;;;;;;4988070;28;20019;-73
2022/06/11 11:02:51;;;;;;;9.65;2.47;;;;;;;;;;4988101;28;20026;-72
2022/06/11 11:05:19;;;;;;;3.25;2.20;;;;;;;;;;4988396;28;20030;-72
2022/06/11 11:07:59;;;;;;;4.93;2.53;;;;;;;;;;4989393;28;20471;-73
2022/06/11 11:10:36;;;;;;;2.75;2.45;;;;;;;;;;5004774;28;20491;-72
2022/06/11 11:13:31;;;;;;;6.53;3.08;;;;;;;;;;4989976;28;20336;-73
2022/06/11 11:16:07;;;;;;;3.88;2.10;;;;;;;;;;4989670;28;20034;-73
2022/06/11 11:18:39;;;;;;;4.10;2.15;;;;;;;;;;4987837;28;20022;-72
2022/06/11 11:21:14;;;;;;;8.05;2.80;;;;;;;;;;4989329;28;20033;-73
2022/06/11 11:23:41;;;;;;;4.20;2.55;;;;;;;;;;4968197;28;20030;-76
2022/06/11 11:26:12;;;;;;;5.82;2.60;;;;;;;;;;4969594;28;20059;-71
2022/06/11 11:28:44;;;;;;;5.03;2.67;;;;;;;;;;4984693;28;20058;-73
2022/06/11 11:31:20;;;;;;;6.13;3.40;;;;;;;;;;4972432;28;20035;-73
2022/06/11 11:34:12;;;;;;;5.80;2.60;;;;;;;;;;4973569;28;20119;-72
2022/06/11 11:36:38;;;;;;;4.97;2.70;;;;;;;;;;4972331;28;20150;-73
2022/06/11 11:39:13;;;;;;;3.65;3.10;;;;;;;;;;4988702;28;20059;-73
2022/06/11 11:41:46;;;;;;;3.55;2.25;;;;;;;;;;4971680;28;20550;-73
2022/06/11 11:44:21;;;;;;;3.47;2.00;;;;;;;;;;4971858;28;20031;-71
2022/06/11 11:46:58;;;;;;;2.15;1.98;;;;;;;;;;4987893;28;20169;-72
2022/06/11 11:49:32;;;;;;;2.40;2.20;;;;;;;;;;4971932;28;20430;-72
2022/06/11 11:52:18;;;;;;;4.45;2.30;;;;;;;;;;4971686;28;20040;-74
2022/06/11 11:55:16;;;;;;;2.97;2.45;;;;;;;;;;4972692;28;20049;-74
2022/06/11 11:57:51;;;;;;;3.92;2.80;;;;;;;;;;4972178;28;20042;-72
2022/06/11 12:00:39;;;;;;;2.45;2.10;;;;;;;;;;4972707;28;20394;-75
2022/06/11 12:03:12;;;;;;;4.47;2.15;;;;;;;;;;4972801;28;20031;-72
2022/06/11 12:05:47;;;;;;;5.07;3.00;;;;;;;;;;4972007;28;20515;-73
2022/06/11 12:08:20;;;;;;;3.65;2.00;;;;;;;;;;4971986;28;20466;-71
2022/06/11 12:10:51;;;;;;;4.18;2.10;;;;;;;;;;4971211;28;20037;-73
2022/06/11 12:13:22;;;;;;;2.70;2.10;;;;;;;;;;4972369;28;20015;-72
2022/06/11 12:15:59;;;;;;;1.83;1.63;;;;;;;;;;4972579;28;20196;-73
2022/06/11 12:18:34;;;;;;;2.20;2.00;;;;;;;;;;4971445;28;20061;-73
2022/06/11 12:21:07;;;;;;;2.85;1.90;;;;;;;;;;4971027;28;20034;-72
2022/06/11 12:23:42;;;;;;;3.53;2.35;;;;;;;;;;4990129;28;20117;-73
2022/06/11 12:26:21;;;;;;;4.03;2.35;;;;;;;;;;4991922;28;20580;-72
2022/06/11 12:28:54;;;;;;;4.63;2.10;;;;;;;;;;4990361;28;20101;-74
2022/06/11 12:31:20;;;;;;;3.78;2.10;;;;;;;;;;4990245;28;20367;-74
2022/06/11 12:33:46;;;;;;;4.03;2.10;;;;;;;;;;4991381;28;20014;-72
2022/06/11 12:36:37;;;;;;;4.90;1.77;;;;;;;;;;4990409;28;20058;-73
2022/06/11 12:39:22;;;;;;;1.88;1.52;;;;;;;;;;4990744;28;20030;-72
2022/06/11 12:41:55;;;;;;;4.05;1.65;;;;;;;;;;5022670;28;20125;-72
2022/06/11 12:44:49;;;;;;;2.65;1.90;;;;;;;;;;4990652;28;20117;-74
2022/06/11 12:47:36;;;;;;;5.40;1.90;;;;;;;;;;4991792;28;20104;-72
2022/06/11 12:50:25;;;;;;;3.45;1.67;;;;;;;;;;4990620;28;20030;-74
2022/06/11 12:53:03;;;;;;;2.73;1.80;;;;;;;;;;4989885;28;20030;-73
2022/06/11 12:55:43;;;;;;;3.58;2.10;;;;;;;;;;4991538;28;20081;-74
2022/06/11 12:58:33;;;;;;;1.45;1.35;;;;;;;;;;4991354;28;20474;-73
2022/06/11 13:01:32;;;;;;;1.63;1.40;;;;;;;;;;4991202;28;20117;-76
2022/06/11 13:04:13;;;;;;;3.83;1.75;;;;;;;;;;4991200;28;20032;-76
2022/06/11 13:06:43;;;;;;;4.85;1.40;;;;;;;;;;4991678;28;20030;-76
2022/06/11 13:09:11;;;;;;;1.40;1.30;;;;;;;;;;4990045;28;20097;-77
2022/06/11 13:12:01;;;;;;;2.90;1.45;;;;;;;;;;4990347;28;20022;-77
2022/06/11 13:14:43;;;;;;;1.60;1.48;;;;;;;;;;4990119;28;20022;-75
2022/06/11 13:17:14;;;;;;;3.28;1.77;;;;;;;;;;4989899;28;20394;-77
2022/06/11 13:20:02;;;;;;;2.15;1.40;;;;;;;;;;4990070;28;20030;-77
2022/06/11 13:22:54;;;;;;;4.15;1.90;;;;;;;;;;4981114;28;20023;-77
2022/06/11 13:25:45;;;;;;;1.80;1.63;;;;;;;;;;4973770;28;20043;-76
2022/06/11 13:28:55;;;;;;;2.75;1.70;;;;;;;;;;4973136;28;20037;-76
2022/06/11 13:31:27;;;;;;;2.58;1.63;;;;;;;;;;4971858;28;20039;-77
2022/06/11 13:33:53;;;;;;;3.88;1.80;;;;;;;;;;4970242;28;20034;-75
2022/06/11 13:36:42;;;;;;;3.30;1.65;;;;;;;;;;4971090;28;20034;-77
2022/06/11 13:39:23;;;;;;;2.67;1.73;;;;;;;;;;4973261;28;20414;-76
2022/06/11 13:42:00;;;;;;;1.92;1.35;;;;;;;;;;4976829;28;20182;-75
2022/06/11 13:44:45;;;;;;;2.40;1.85;;;;;;;;;;4976635;28;20027;-75
2022/06/11 13:47:31;;;;;;;2.72;1.40;;;;;;;;;;4978019;28;20038;-76
2022/06/11 13:50:18;;;;;;;2.13;1.70;;;;;;;;;;4978883;28;20033;-75
2022/06/11 13:56:06;;;;;;;1.95;1.40;;;;;;;;;;4972050;28;20130;-77
2022/06/11 13:59:20;;;;;;;3.97;2.10;;;;;;;;;;4970621;28;20356;-77
2022/06/11 14:02:10;;;;;;;3.97;1.92;;;;;;;;;;4969474;28;20499;-77
2022/06/11 14:04:41;;;;;;;3.75;1.65;;;;;;;;;;4969899;28;20069;-76
2022/06/11 14:07:11;;;;;;;3.80;2.65;;;;;;;;;;4969851;28;20034;-76
2022/06/11 14:12:49;;;;;;;2.67;1.67;;;;;;;;;;4970923;28;20093;-75
2022/06/11 14:15:22;;;;;;;2.45;1.80;;;;;;;;;;4971830;28;20082;-76
2022/06/11 14:17:52;;;;;;;4.40;1.80;;;;;;;;;;4970980;28;20038;-77
2022/06/11 14:20:27;;;;;;;3.70;1.90;;;;;;;;;;4971052;28;20035;-77
2022/06/11 14:22:56;;;;;;;2.20;1.83;;;;;;;;;;4982871;28;20026;-78
2022/06/11 14:25:42;;;;;;;1.85;1.20;;;;;;;;;;4988667;28;20042;-77
2022/06/11 14:28:16;;;;;;;6.03;2.38;;;;;;;;;;4990171;28;20585;-77
2022/06/11 14:30:48;;;;;;;6.38;2.05;;;;;;;;;;4988589;28;20038;-77
2022/06/11 14:33:13;;;;;;;4.30;1.67;;;;;;;;;;4990128;28;20030;-78
2022/06/11 14:35:52;;;;;;;9.02;1.85;;;;;;;;;;4990424;28;20038;-77
2022/06/11 14:38:20;;;;;;;3.35;1.45;;;;;;;;;;4988572;28;20121;-76
2022/06/11 14:40:47;;;;;;;2.25;1.50;;;;;;;;;;4989568;28;20033;-76
2022/06/11 14:43:16;;;;;;;3.38;1.80;;;;;;;;;;4989011;28;20049;-75
2022/06/11 14:45:48;;;;;;;2.88;2.20;;;;;;;;;;4988901;28;20031;-77
2022/06/11 14:48:44;;;;;;;4.45;1.85;;;;;;;;;;4990129;28;20037;-77
2022/06/11 14:51:11;;;;;;;2.90;2.08;;;;;;;;;;4988579;28;20030;-76
2022/06/11 14:53:45;;;;;;;3.50;1.95;;;;;;;;;;4990147;28;20019;-76
2022/06/11 14:56:14;;;;;;;5.28;1.75;;;;;;;;;;4990085;28;20057;-76
2022/06/11 14:59:10;;;;;;;3.63;1.70;;;;;;;;;;4988436;28;20038;-76
2022/06/11 15:01:54;;;;;;;4.40;2.15;;;;;;;;;;4988415;28;20560;-77
2022/06/11 15:04:37;;;;;;;2.90;2.47;;;;;;;;;;4989890;28;20026;-78
2022/06/11 15:07:09;;;;;;;2.65;2.10;;;;;;;;;;4992291;28;20071;-76
2022/06/11 15:10:13;;;;;;;3.15;2.00;;;;;;;;;;4992507;28;20037;-76
2022/06/11 15:12:46;;;;;;;4.15;3.50;;;;;;;;;;4991945;28;20030;-77
2022/06/11 15:15:36;;;;;;;6.35;2.08;;;;;;;;;;4993839;28;20038;-76
2022/06/11 15:18:13;;;;;;;2.30;1.92;;;;;;;;;;4992173;28;20042;-76
2022/06/11 15:20:46;;;;;;;4.68;1.85;;;;;;;;;;4991986;28;20038;-76
2022/06/11 15:23:25;;;;;;;3.92;2.25;;;;;;;;;;4975572;28;20030;-76
2022/06/11 15:25:54;;;;;;;8.70;2.00;;;;;;;;;;4972173;28;20043;-76